createdAt,value
2018-07-04T00:02:02.631Z,0.90
2018-07-04T00:04:42.242Z,0.60
2018-07-04T00:07:22.008Z,0.70
2018-07-04T00:10:01.816Z,0.67
2018-07-04T00:12:41.418Z,0.80
2018-07-04T00:15:21.078Z,0.70
2018-07-04T00:18:00.614Z,0.67
2018-07-04T00:20:40.224Z,0.73
2018-07-04T00:23:19.779Z,0.50
2018-07-04T00:25:59.329Z,0.63
2018-07-04T00:28:39.026Z,0.90
2018-07-04T00:31:18.723Z,0.70
2018-07-04T00:33:58.453Z,1.00
2018-07-04T00:36:38.275Z,0.70
2018-07-04T00:39:18.042Z,0.80
2018-07-04T00:41:57.713Z,0.67
2018-07-04T00:44:37.534Z,0.50
2018-07-04T00:47:17.214Z,0.57
2018-07-04T00:49:56.815Z,0.60
2018-07-04T00:52:36.564Z,0.80
2018-07-04T00:55:16.230Z,0.80
2018-07-04T00:57:55.902Z,0.63
2018-07-04T01:00:35.552Z,0.60
2018-07-04T01:03:15.249Z,1.03
2018-07-04T01:05:54.805Z,0.90
2018-07-04T01:08:34.408Z,0.60
2018-07-04T01:11:13.957Z,0.70
2018-07-04T01:13:53.847Z,0.70
2018-07-04T01:16:33.358Z,0.73
2018-07-04T01:19:13.114Z,0.73
2018-07-04T01:21:52.875Z,0.73
2018-07-04T01:24:32.617Z,0.67
2018-07-04T01:27:12.337Z,0.80
2018-07-04T01:29:52.194Z,0.77
2018-07-04T01:32:31.838Z,0.53
2018-07-04T01:35:11.421Z,0.80
2018-07-04T01:37:51.109Z,0.80
2018-07-04T01:40:30.807Z,0.80
2018-07-04T01:43:10.523Z,0.70
2018-07-04T01:45:50.187Z,0.70
2018-07-04T01:48:29.733Z,0.70
2018-07-04T01:51:09.464Z,1.10
2018-07-04T01:53:49.235Z,1.00
2018-07-04T01:56:28.958Z,0.80
2018-07-04T01:59:08.650Z,0.80
2018-07-04T02:01:48.321Z,0.70
2018-07-04T02:04:28.068Z,0.90
2018-07-04T02:07:07.623Z,0.70
2018-07-04T02:09:47.250Z,0.83
2018-07-04T02:12:26.954Z,0.80
2018-07-04T02:15:06.554Z,1.00
2018-07-04T02:17:46.275Z,0.90
2018-07-04T02:20:25.933Z,0.90
2018-07-04T02:23:05.532Z,0.80
2018-07-04T02:25:45.165Z,0.80
2018-07-04T02:28:24.762Z,1.40
2018-07-04T02:31:04.376Z,1.57
2018-07-04T02:33:43.954Z,0.90
2018-07-04T02:36:23.570Z,0.83
2018-07-04T02:39:04.928Z,1.00
2018-07-04T02:41:44.878Z,0.60
2018-07-04T02:44:24.667Z,0.83
2018-07-04T02:47:04.305Z,1.00
2018-07-04T02:49:43.967Z,0.80
2018-07-04T02:52:23.661Z,0.70
2018-07-04T02:55:03.480Z,0.73
2018-07-04T02:57:43.279Z,0.87
2018-07-04T03:00:23.030Z,0.90
2018-07-04T03:03:02.761Z,1.20
2018-07-04T03:05:42.541Z,0.67
2018-07-04T03:08:22.109Z,1.00
2018-07-04T03:11:01.594Z,1.03
2018-07-04T03:13:42.183Z,1.07
2018-07-04T03:16:21.687Z,1.20
2018-07-04T03:19:01.181Z,0.70
2018-07-04T03:21:40.876Z,0.80
2018-07-04T03:24:20.389Z,0.90
2018-07-04T03:26:59.967Z,0.90
2018-07-04T03:29:39.722Z,1.03
2018-07-04T03:32:19.290Z,0.97
2018-07-04T03:34:59.051Z,1.00
2018-07-04T03:37:38.634Z,1.03
2018-07-04T03:40:20.140Z,1.00
2018-07-04T03:43:00.637Z,1.30
2018-07-04T03:45:40.231Z,1.00
2018-07-04T03:48:19.975Z,1.53
2018-07-04T03:50:59.696Z,1.10
2018-07-04T03:53:39.307Z,1.20
2018-07-04T03:56:19.046Z,1.03
2018-07-04T03:58:58.694Z,1.47
2018-07-04T04:01:38.432Z,0.77
2018-07-04T04:04:18.196Z,1.30
2018-07-04T04:06:57.942Z,0.87
2018-07-04T04:09:37.602Z,0.90
2018-07-04T04:12:17.285Z,1.20
2018-07-04T04:14:57.829Z,1.10
2018-07-04T04:17:37.460Z,1.00
2018-07-04T04:20:17.057Z,1.07
2018-07-04T04:22:56.694Z,0.70
2018-07-04T04:25:36.362Z,0.83
2018-07-04T04:28:15.909Z,1.00
2018-07-04T04:30:55.537Z,1.00
2018-07-04T04:33:35.161Z,1.05
2018-07-04T04:36:14.730Z,0.72
2018-07-04T04:38:54.434Z,0.50
2018-07-04T04:41:34.013Z,0.72
2018-07-04T04:44:13.714Z,1.10
2018-07-04T04:46:53.297Z,0.80
2018-07-04T04:49:32.956Z,0.90
2018-07-04T04:52:12.590Z,0.68
2018-07-04T04:54:52.316Z,0.60
2018-07-04T04:57:31.838Z,0.82
2018-07-04T05:00:11.400Z,0.70
2018-07-04T05:02:51.059Z,0.80
2018-07-04T05:05:30.833Z,0.60
2018-07-04T05:08:10.503Z,0.65
2018-07-04T05:10:50.262Z,0.50
2018-07-04T05:13:29.929Z,0.62
2018-07-04T05:16:09.594Z,0.65
2018-07-04T05:18:49.183Z,0.68
2018-07-04T05:21:28.890Z,0.50
2018-07-04T05:24:08.482Z,0.50
2018-07-04T05:26:48.048Z,0.45
2018-07-04T05:29:27.690Z,0.40
2018-07-04T05:32:08.330Z,0.42
2018-07-04T05:34:48.030Z,0.42
2018-07-04T05:37:27.922Z,0.78
2018-07-04T05:40:07.353Z,0.68
2018-07-04T05:42:41.097Z,0.70
2018-07-04T05:45:20.853Z,0.47
2018-07-04T05:48:00.531Z,0.55
2018-07-04T05:50:40.235Z,0.37
2018-07-04T05:53:19.892Z,0.45
2018-07-04T05:55:59.642Z,0.30
2018-07-04T05:58:40.304Z,0.68
2018-07-04T06:01:20.031Z,0.50
2018-07-04T06:03:59.715Z,0.47
2018-07-04T06:06:39.427Z,0.60
2018-07-04T06:09:19.083Z,0.55
2018-07-04T06:11:58.752Z,0.42
2018-07-04T06:14:38.323Z,0.30
2018-07-04T06:17:17.914Z,0.50
2018-07-04T06:19:57.714Z,0.30
2018-07-04T06:22:37.393Z,0.35
2018-07-04T06:25:16.997Z,0.47
2018-07-04T06:27:56.574Z,0.40
2018-07-04T06:30:36.151Z,0.47
2018-07-04T06:33:15.812Z,0.37
2018-07-04T06:35:55.443Z,0.30
2018-07-04T06:38:22.726Z,0.50
2018-07-04T06:40:49.992Z,0.40
2018-07-04T06:43:17.263Z,0.40
2018-07-04T06:45:44.523Z,0.40
2018-07-04T06:48:11.803Z,0.57
2018-07-04T06:50:39.049Z,1.05
2018-07-04T06:53:06.382Z,0.42
2018-07-04T06:55:33.650Z,0.23
2018-07-04T06:58:00.937Z,0.40
2018-07-04T07:00:28.208Z,0.25
2018-07-04T07:03:07.834Z,0.28
2018-07-04T07:05:47.560Z,0.45
2018-07-04T07:08:27.611Z,0.30
2018-07-04T07:11:07.368Z,0.40
2018-07-04T07:13:47.140Z,0.50
2018-07-04T07:16:26.883Z,0.30
2018-07-04T07:19:06.496Z,0.33
2018-07-04T07:21:46.360Z,0.40
2018-07-04T07:24:25.986Z,0.55
2018-07-04T07:27:06.587Z,0.40
2018-07-04T07:29:46.204Z,0.30
2018-07-04T07:32:26.831Z,0.30
2018-07-04T07:35:06.445Z,0.40
2018-07-04T07:37:46.013Z,0.37
2018-07-04T07:40:25.737Z,0.40
2018-07-04T07:43:05.406Z,0.30
2018-07-04T07:45:44.980Z,0.40
2018-07-04T07:48:24.647Z,0.40
2018-07-04T07:51:04.209Z,0.30
2018-07-04T07:53:43.838Z,0.40
2018-07-04T07:56:23.597Z,0.33
2018-07-04T07:59:03.234Z,0.30
2018-07-04T08:01:42.871Z,0.40
2018-07-04T08:48:16.006Z,0.42
2018-07-04T08:50:55.778Z,0.40
2018-07-04T08:53:35.447Z,0.50
2018-07-04T08:56:15.295Z,0.37
2018-07-04T08:58:55.088Z,0.60
2018-07-04T09:01:34.882Z,0.40
2018-07-04T09:04:14.667Z,0.60
2018-07-04T09:06:54.360Z,0.42
2018-07-04T09:09:34.028Z,0.40
2018-07-04T09:12:13.646Z,0.30
2018-07-04T09:14:53.287Z,0.30
2018-07-04T09:17:32.908Z,0.30
2018-07-04T09:20:13.400Z,0.55
2018-07-04T09:22:53.027Z,0.57
2018-07-04T09:25:32.721Z,0.40
2018-07-04T09:28:06.294Z,0.42
2018-07-04T09:30:46.012Z,0.60
2018-07-04T09:33:25.694Z,0.42
2018-07-04T09:36:05.475Z,0.60
2018-07-04T09:38:45.150Z,0.60
2018-07-04T09:41:24.879Z,0.30
2018-07-04T09:44:04.632Z,0.50
2018-07-04T09:46:44.401Z,0.60
2018-07-04T09:49:23.980Z,0.60
2018-07-04T09:52:03.536Z,0.72
2018-07-04T09:54:43.212Z,0.60
2018-07-04T09:57:22.733Z,0.42
2018-07-04T10:00:02.438Z,0.70
2018-07-04T10:02:43.202Z,0.47
2018-07-04T10:05:22.970Z,0.50
2018-07-04T10:08:02.751Z,0.40
2018-07-04T10:10:42.550Z,0.50
2018-07-04T10:13:22.188Z,0.60
2018-07-04T10:16:01.780Z,0.60
2018-07-04T10:18:41.478Z,0.93
2018-07-04T10:21:21.120Z,0.55
2018-07-04T10:24:00.742Z,0.57
2018-07-04T10:26:40.396Z,0.50
2018-07-04T10:29:20.113Z,0.55
2018-07-04T10:31:59.715Z,0.82
2018-07-04T10:34:39.512Z,0.50
2018-07-04T10:37:19.288Z,0.50
2018-07-04T10:39:58.956Z,0.60
2018-07-04T10:42:39.572Z,0.50
2018-07-04T10:45:19.251Z,0.50
2018-07-04T10:47:58.854Z,0.50
2018-07-04T10:50:38.478Z,0.50
2018-07-04T10:53:18.041Z,0.30
2018-07-04T10:55:57.783Z,0.60
2018-07-04T10:58:37.425Z,0.55
2018-07-04T11:01:17.467Z,0.60
2018-07-04T11:03:57.436Z,0.75
2018-07-04T11:06:37.269Z,0.55
2018-07-04T11:09:16.826Z,0.60
2018-07-04T11:11:56.489Z,0.60
2018-07-04T11:14:36.103Z,1.12
2018-07-04T11:17:15.861Z,0.60
2018-07-04T11:19:55.641Z,0.37
2018-07-04T11:22:35.297Z,0.47
2018-07-04T11:25:14.920Z,0.30
2018-07-04T11:27:54.538Z,0.42
2018-07-04T11:30:34.397Z,0.57
2018-07-04T11:33:13.972Z,0.50
2018-07-04T11:35:53.924Z,0.42
2018-07-04T11:38:33.516Z,0.62
2018-07-04T11:41:13.221Z,0.40
2018-07-04T11:43:53.122Z,0.60
2018-07-04T11:46:20.413Z,0.57
2018-07-04T11:48:47.686Z,0.72
2018-07-04T11:51:14.968Z,0.60
2018-07-04T11:53:42.248Z,0.53
2018-07-04T11:56:09.533Z,0.70
2018-07-04T11:58:36.807Z,0.62
2018-07-04T12:01:04.104Z,0.70
2018-07-04T12:03:31.386Z,0.60
2018-07-04T12:06:11.207Z,0.60
2018-07-04T12:11:08.926Z,0.53
2018-07-04T12:13:36.182Z,0.70
2018-07-04T12:16:03.470Z,0.45
2018-07-04T12:18:30.735Z,0.50
2018-07-04T12:20:58.029Z,0.80
2018-07-04T12:23:25.306Z,0.65
2018-07-04T12:25:52.578Z,0.60
2018-07-04T12:28:19.857Z,0.70
2018-07-04T12:30:47.155Z,0.60
2018-07-04T12:33:14.690Z,0.60
2018-07-04T12:35:41.968Z,0.57
2018-07-04T12:38:09.249Z,0.60
2018-07-04T12:40:36.608Z,0.60
2018-07-04T12:43:03.870Z,0.70
2018-07-04T12:45:31.140Z,0.70
2018-07-04T12:47:58.957Z,0.62
2018-07-04T12:50:29.916Z,0.50
2018-07-04T12:52:57.233Z,0.57
2018-07-04T12:55:39.165Z,0.60
2018-07-04T12:58:19.901Z,0.50
2018-07-04T13:00:59.862Z,0.60
2018-07-04T13:03:39.509Z,0.70
2018-07-04T13:06:19.179Z,0.80
2018-07-04T13:08:58.714Z,0.50
2018-07-04T13:11:38.304Z,0.47
2018-07-04T13:14:18.074Z,0.70
2018-07-04T13:16:57.739Z,0.50
2018-07-04T13:19:31.256Z,0.40
2018-07-04T13:22:10.870Z,0.53
2018-07-04T13:24:50.513Z,0.33
2018-07-04T13:27:30.280Z,0.33
2018-07-04T13:30:10.093Z,0.50
2018-07-04T13:32:49.835Z,0.40
2018-07-04T13:35:29.587Z,0.40
2018-07-04T13:38:09.262Z,0.50
2018-07-04T13:40:48.973Z,0.60
2018-07-04T13:43:28.718Z,0.30
2018-07-04T13:46:08.249Z,0.40
2018-07-04T13:48:47.862Z,0.30
2018-07-04T13:51:58.377Z,0.33
2018-07-04T13:54:38.163Z,0.42
2018-07-04T13:57:17.973Z,0.40
2018-07-04T13:59:57.661Z,0.30
2018-07-04T14:02:37.335Z,0.60
2018-07-04T14:05:16.984Z,0.40
2018-07-04T14:07:56.713Z,0.30
2018-07-04T14:10:37.568Z,0.45
2018-07-04T14:13:17.557Z,0.90
2018-07-04T14:15:57.577Z,0.37
2018-07-04T14:18:37.460Z,0.50
2018-07-04T14:21:17.288Z,0.50
2018-07-04T14:23:56.997Z,0.30
2018-07-04T14:26:36.928Z,0.57
2018-07-04T14:29:16.752Z,0.50
2018-07-04T14:31:56.408Z,0.60
2018-07-04T14:34:36.133Z,0.75
2018-07-04T14:37:15.997Z,0.78
2018-07-04T14:39:55.702Z,0.53
2018-07-04T14:42:35.376Z,0.78
2018-07-04T14:45:15.140Z,0.50
2018-07-04T14:48:58.101Z,0.80
2018-07-04T14:51:37.697Z,0.50
2018-07-04T14:54:17.391Z,0.47
2018-07-04T14:56:56.993Z,0.60
2018-07-04T14:59:36.649Z,0.47
2018-07-04T15:02:16.192Z,0.57
2018-07-04T15:04:55.822Z,0.80
2018-07-04T15:07:35.593Z,0.65
2018-07-04T15:10:15.267Z,0.60
2018-07-04T15:12:54.901Z,0.70
2018-07-04T15:15:34.517Z,1.45
2018-07-04T15:18:14.152Z,0.55
2018-07-04T15:20:53.883Z,0.80
2018-07-04T15:23:33.594Z,0.55
2018-07-04T15:26:13.341Z,0.50
2018-07-04T15:28:53.353Z,0.70
2018-07-04T15:31:32.876Z,1.25
2018-07-04T15:34:12.520Z,0.57
2018-07-04T15:36:52.126Z,0.72
2018-07-04T15:39:32.861Z,0.90
2018-07-04T15:42:12.644Z,0.50
2018-07-04T15:44:52.506Z,0.70
2018-07-04T15:47:32.194Z,0.50
2018-07-04T15:50:11.829Z,0.70
2018-07-04T15:52:51.504Z,0.57
2018-07-04T15:55:31.116Z,0.70
2018-07-04T15:58:10.937Z,0.78
2018-07-04T16:00:50.754Z,0.50
2018-07-04T16:03:30.542Z,0.50
2018-07-04T16:06:10.203Z,0.78
2018-07-04T16:08:49.827Z,0.60
2018-07-04T16:11:29.542Z,1.00
2018-07-04T16:14:09.304Z,0.80
2018-07-04T16:16:49.103Z,0.50
2018-07-04T16:19:28.659Z,0.65
2018-07-04T16:22:08.356Z,0.60
2018-07-04T16:24:47.977Z,0.53
2018-07-04T16:27:27.724Z,0.80
2018-07-04T16:30:07.433Z,0.50
2018-07-04T16:32:47.125Z,0.60
2018-07-04T16:35:26.781Z,0.60
2018-07-04T16:38:06.606Z,0.65
2018-07-04T16:40:46.255Z,0.47
2018-07-04T16:43:26.830Z,0.60
2018-07-04T16:46:06.511Z,0.80
2018-07-04T16:48:46.117Z,0.55
2018-07-04T16:51:25.639Z,0.80
2018-07-04T16:54:05.302Z,0.50
2018-07-04T16:56:44.923Z,0.78
2018-07-04T16:59:24.547Z,0.78
2018-07-04T17:02:04.200Z,0.60
2018-07-04T17:04:43.870Z,0.90
2018-07-04T17:07:23.654Z,0.70
2018-07-04T17:10:03.498Z,0.60
2018-07-04T17:12:43.221Z,0.80
2018-07-04T17:15:22.885Z,0.62
2018-07-04T17:18:02.749Z,0.70
2018-07-04T17:20:42.472Z,0.68
2018-07-04T17:23:22.255Z,0.80
2018-07-04T17:26:02.102Z,0.55
2018-07-04T17:28:41.918Z,0.90
2018-07-04T17:31:21.455Z,0.60
2018-07-04T17:34:01.006Z,0.65
2018-07-04T17:36:40.639Z,0.70
2018-07-04T17:39:20.377Z,0.78
2018-07-04T17:42:00.106Z,0.70
2018-07-04T17:44:39.941Z,0.75
2018-07-04T17:47:19.817Z,0.57
2018-07-04T17:49:59.538Z,0.70
2018-07-04T17:52:39.198Z,0.65
2018-07-04T17:55:19.058Z,0.80
2018-07-04T17:57:58.819Z,0.53
2018-07-04T18:00:38.537Z,0.45
2018-07-04T18:03:18.131Z,0.70
2018-07-04T18:05:57.781Z,0.70
2018-07-04T18:08:37.583Z,0.75
2018-07-04T18:11:17.299Z,0.70
2018-07-04T18:13:56.941Z,0.75
2018-07-04T18:16:36.532Z,1.00
2018-07-04T18:19:16.160Z,0.98
2018-07-04T18:21:55.913Z,2.40
2018-07-04T18:24:35.556Z,1.00
2018-07-04T18:27:15.153Z,0.93
2018-07-04T18:29:54.830Z,2.00
2018-07-04T18:32:34.523Z,1.30
2018-07-04T18:35:14.035Z,1.35
2018-07-04T18:37:53.719Z,1.00
2018-07-04T18:40:33.341Z,0.90
2018-07-04T18:43:12.950Z,1.10
2018-07-04T18:45:52.682Z,1.15
2018-07-04T18:48:38.904Z,1.12
2018-07-04T18:51:34.562Z,1.00
2018-07-04T18:54:14.402Z,1.07
2018-07-04T18:56:54.571Z,0.75
2018-07-04T18:59:35.129Z,1.00
2018-07-04T19:02:14.887Z,1.10
2018-07-04T19:04:54.559Z,0.93
2018-07-04T19:07:34.218Z,1.55
2018-07-04T19:10:13.983Z,1.07
2018-07-04T19:12:53.736Z,0.90
2018-07-04T19:15:34.590Z,1.10
2018-07-04T19:18:14.271Z,1.10
2018-07-04T19:20:56.000Z,0.90
2018-07-04T19:23:36.372Z,1.07
2018-07-04T19:26:16.065Z,1.10
2018-07-04T19:28:55.812Z,1.27
2018-07-04T19:31:54.456Z,1.22
2018-07-04T19:36:19.276Z,1.17
2018-07-04T19:38:54.765Z,1.25
2018-07-04T19:48:32.331Z,1.15
2018-07-04T19:59:46.402Z,1.30
2018-07-04T20:18:09.240Z,1.50
2018-07-04T20:52:01.664Z,1.22
2018-07-04T21:43:01.270Z,1.40
2018-07-04T21:45:40.859Z,1.20
2018-07-04T21:48:20.603Z,1.25
2018-07-04T21:51:00.355Z,1.20
2018-07-04T21:53:39.993Z,1.30
2018-07-04T21:59:54.470Z,1.62
2018-07-04T22:02:34.115Z,1.32
2018-07-04T22:05:13.793Z,1.45
2018-07-04T22:07:53.432Z,1.30
2018-07-04T22:10:33.097Z,1.30
2018-07-04T22:13:12.738Z,1.30
2018-07-04T22:15:52.446Z,1.35
2018-07-04T22:18:32.102Z,1.15
2018-07-04T22:21:11.769Z,1.12
2018-07-04T22:23:51.438Z,1.30
2018-07-04T22:26:31.061Z,1.57
2018-07-04T22:29:10.691Z,1.12
2018-07-04T22:31:50.276Z,1.47
2018-07-04T22:34:23.924Z,1.47
2018-07-04T22:37:04.002Z,1.30
2018-07-04T22:39:43.847Z,1.55
2018-07-04T22:42:23.604Z,1.62
2018-07-04T22:45:04.819Z,1.77
2018-07-04T22:47:44.381Z,1.32
2018-07-04T22:50:24.081Z,1.70
2018-07-04T22:53:03.692Z,1.45
2018-07-04T22:55:43.450Z,1.60
2018-07-04T22:58:23.108Z,1.50
2018-07-04T23:01:02.759Z,1.27
2018-07-04T23:03:42.499Z,1.82
2018-07-04T23:06:22.359Z,1.60
2018-07-04T23:09:02.100Z,1.50
2018-07-04T23:11:41.656Z,1.67
2018-07-04T23:14:21.262Z,1.55
2018-07-04T23:17:00.922Z,1.87
2018-07-04T23:19:40.658Z,1.87
2018-07-04T23:22:20.504Z,1.90
2018-07-04T23:25:00.284Z,1.80
2018-07-04T23:27:40.136Z,2.45
2018-07-04T23:30:19.858Z,1.92
2018-07-04T23:32:59.672Z,1.42
2018-07-04T23:35:39.357Z,1.67
2018-07-04T23:38:19.090Z,1.52
2018-07-04T23:40:58.734Z,1.50
2018-07-04T23:43:38.575Z,1.80
2018-07-04T23:46:18.454Z,1.75
2018-07-04T23:48:58.152Z,2.00
2018-07-04T23:51:37.827Z,1.77
2018-07-04T23:54:17.284Z,2.12
2018-07-04T23:56:56.805Z,1.75
2018-07-04T23:59:36.534Z,1.85
